Time;durP1;ratioP1;P1;durP2;ratioP2;P2;SDS_P1;SDS_P2;PMS_P1;PMS_P2;Temp;Humidity;BMP_temperature;BMP_pressure;BME280_temperature;BME280_humidity;BME280_pressure;Samples;Min_cycle;Max_cycle;Signal;HPM_P1;HPM_P2
2021/05/07 00:01:28;;;;;;;2.87;1.67;;;;;;;;;;4872030;29;20238;-82
2021/05/07 00:03:55;;;;;;;4.63;1.70;;;;;;;;;;4856595;29;20233;-86
2021/05/07 00:06:23;;;;;;;4.00;1.60;;;;;;;;;;4867726;29;20237;-84
2021/05/07 00:08:51;;;;;;;2.20;1.40;;;;;;;;;;4856467;29;20241;-83
2021/05/07 00:11:19;;;;;;;5.70;1.90;;;;;;;;;;4875537;29;20241;-83
2021/05/07 00:13:48;;;;;;;3.50;1.13;;;;;;;;;;4863198;29;20612;-84
2021/05/07 00:16:16;;;;;;;2.23;1.10;;;;;;;;;;4854981;29;20234;-82
2021/05/07 00:18:44;;;;;;;2.53;1.17;;;;;;;;;;4855848;29;20245;-82
2021/05/07 00:21:12;;;;;;;1.60;1.27;;;;;;;;;;4863654;29;20248;-81
2021/05/07 00:23:40;;;;;;;1.83;1.17;;;;;;;;;;4876858;29;20241;-82
2021/05/07 00:26:07;;;;;;;3.57;1.40;;;;;;;;;;4882785;29;20233;-81
2021/05/07 00:28:37;;;;;;;2.80;1.33;;;;;;;;;;4886846;29;20222;-80
2021/05/07 00:31:05;;;;;;;3.80;1.40;;;;;;;;;;4871157;29;20225;-82
2021/05/07 00:33:33;;;;;;;4.37;1.30;;;;;;;;;;4871738;29;20240;-84
2021/05/07 00:36:00;;;;;;;2.50;1.03;;;;;;;;;;4884384;29;23301;-80
2021/05/07 00:38:32;;;;;;;3.80;1.27;;;;;;;;;;4857808;29;20749;-81
2021/05/07 00:40:59;;;;;;;2.73;1.03;;;;;;;;;;4855825;29;20231;-81
2021/05/07 00:43:27;;;;;;;2.53;1.13;;;;;;;;;;4861939;29;20241;-81
2021/05/07 00:45:56;;;;;;;5.77;1.27;;;;;;;;;;4851228;29;20233;-81
2021/05/07 00:48:24;;;;;;;1.43;1.00;;;;;;;;;;4866057;29;20719;-81
2021/05/07 00:50:52;;;;;;;2.10;1.30;;;;;;;;;;4855241;29;20237;-81
2021/05/07 00:53:21;;;;;;;2.17;1.40;;;;;;;;;;4858373;29;20240;-81
2021/05/07 00:55:51;;;;;;;3.53;1.17;;;;;;;;;;4869370;29;20234;-83
2021/05/07 00:58:19;;;;;;;4.37;1.40;;;;;;;;;;4845236;29;20721;-82
2021/05/07 01:00:48;;;;;;;4.53;1.43;;;;;;;;;;4850278;29;20234;-81
2021/05/07 01:03:17;;;;;;;2.20;1.33;;;;;;;;;;4868744;29;20234;-83
2021/05/07 01:05:46;;;;;;;3.90;1.57;;;;;;;;;;4856021;29;20256;-84
2021/05/07 01:08:15;;;;;;;3.80;1.13;;;;;;;;;;4850764;29;20603;-82
2021/05/07 01:10:49;;;;;;;3.53;1.47;;;;;;;;;;4871582;29;20234;-85
2021/05/07 01:13:16;;;;;;;2.83;1.73;;;;;;;;;;4853319;29;20234;-83
2021/05/07 01:15:47;;;;;;;4.60;1.90;;;;;;;;;;4864645;29;20230;-81
2021/05/07 01:18:17;;;;;;;3.67;1.73;;;;;;;;;;4847874;29;20285;-81
2021/05/07 01:20:47;;;;;;;4.03;1.97;;;;;;;;;;4842293;29;20230;-82
2021/05/07 01:23:15;;;;;;;3.50;1.80;;;;;;;;;;4861264;29;20242;-81
2021/05/07 01:25:44;;;;;;;3.10;1.23;;;;;;;;;;4869371;29;20734;-81
2021/05/07 01:28:14;;;;;;;3.37;1.47;;;;;;;;;;4868125;29;20593;-83
2021/05/07 01:30:43;;;;;;;1.67;1.43;;;;;;;;;;4870128;29;20249;-81
2021/05/07 01:33:14;;;;;;;2.53;1.70;;;;;;;;;;4859201;29;20234;-81
2021/05/07 01:35:49;;;;;;;3.63;1.50;;;;;;;;;;4858900;29;20738;-81
2021/05/07 01:38:17;;;;;;;4.50;1.70;;;;;;;;;;4878655;29;20237;-81
2021/05/07 01:40:47;;;;;;;3.60;1.83;;;;;;;;;;4871172;29;20229;-82
2021/05/07 01:43:16;;;;;;;3.17;1.60;;;;;;;;;;4856830;29;20238;-81
2021/05/07 01:45:47;;;;;;;3.53;1.60;;;;;;;;;;4859147;29;20230;-82
2021/05/07 01:48:18;;;;;;;3.30;1.53;;;;;;;;;;4873611;29;20720;-81
2021/05/07 01:50:48;;;;;;;4.27;1.50;;;;;;;;;;4877977;29;20233;-81
2021/05/07 01:53:17;;;;;;;1.97;1.30;;;;;;;;;;4854981;29;20795;-81
2021/05/07 01:55:46;;;;;;;2.87;1.60;;;;;;;;;;4878832;29;20265;-80
2021/05/07 01:58:20;;;;;;;3.13;1.53;;;;;;;;;;4837489;29;20248;-82
2021/05/07 02:00:51;;;;;;;2.50;1.30;;;;;;;;;;4874854;29;20249;-82
2021/05/07 02:03:18;;;;;;;3.53;1.60;;;;;;;;;;4867464;29;20246;-82
2021/05/07 02:05:54;;;;;;;4.97;1.50;;;;;;;;;;4859402;29;20327;-80
2021/05/07 02:08:23;;;;;;;4.13;1.30;;;;;;;;;;4862136;29;20245;-81
2021/05/07 02:10:50;;;;;;;1.73;1.33;;;;;;;;;;4870042;29;20716;-84
2021/05/07 02:13:19;;;;;;;4.53;1.10;;;;;;;;;;4868919;29;20236;-80
2021/05/07 02:15:52;;;;;;;4.90;1.17;;;;;;;;;;4856700;29;20245;-82
2021/05/07 02:18:24;;;;;;;1.63;1.00;;;;;;;;;;4852474;29;20242;-81
2021/05/07 02:20:56;;;;;;;4.00;1.17;;;;;;;;;;4876538;29;20245;-81
2021/05/07 02:23:29;;;;;;;4.87;1.70;;;;;;;;;;4857552;29;20246;-81
2021/05/07 02:25:57;;;;;;;1.27;0.90;;;;;;;;;;4854646;29;20307;-81
2021/05/07 02:28:32;;;;;;;2.00;1.07;;;;;;;;;;4867808;29;20244;-81
2021/05/07 02:31:00;;;;;;;3.93;1.27;;;;;;;;;;4873267;29;20240;-80
2021/05/07 02:33:29;;;;;;;3.53;1.10;;;;;;;;;;4872704;29;20249;-82
2021/05/07 02:35:58;;;;;;;3.63;1.40;;;;;;;;;;4853279;29;20235;-81
2021/05/07 02:38:26;;;;;;;5.83;2.13;;;;;;;;;;4867012;29;20230;-82
2021/05/07 02:40:54;;;;;;;4.17;1.40;;;;;;;;;;4868080;29;20241;-82
2021/05/07 02:43:22;;;;;;;3.93;1.33;;;;;;;;;;4857883;29;20234;-81
2021/05/07 02:45:50;;;;;;;5.27;1.27;;;;;;;;;;4860036;29;20237;-85
2021/05/07 02:48:18;;;;;;;2.07;1.00;;;;;;;;;;4874780;29;20241;-82
2021/05/07 02:50:46;;;;;;;5.80;1.80;;;;;;;;;;4864214;29;20261;-83
2021/05/07 02:53:16;;;;;;;4.10;1.47;;;;;;;;;;4873196;29;20245;-83
2021/05/07 02:55:43;;;;;;;3.57;1.47;;;;;;;;;;4859899;29;20576;-82
2021/05/07 02:58:11;;;;;;;3.70;1.60;;;;;;;;;;4851100;29;20234;-81
2021/05/07 03:00:39;;;;;;;4.30;1.40;;;;;;;;;;4852551;29;20230;-81
2021/05/07 03:03:07;;;;;;;5.33;1.70;;;;;;;;;;4866600;29;20648;-80
2021/05/07 03:05:34;;;;;;;4.40;1.47;;;;;;;;;;4859018;29;20451;-85
2021/05/07 03:08:02;;;;;;;4.50;1.50;;;;;;;;;;4853071;29;20235;-85
2021/05/07 03:10:30;;;;;;;3.63;1.47;;;;;;;;;;4838939;29;20229;-84
2021/05/07 03:12:58;;;;;;;2.10;1.23;;;;;;;;;;4849583;29;20245;-84
2021/05/07 03:15:25;;;;;;;1.73;0.80;;;;;;;;;;4860151;29;20233;-81
2021/05/07 03:17:55;;;;;;;1.13;0.87;;;;;;;;;;4869628;29;20242;-82
2021/05/07 03:20:22;;;;;;;2.70;1.00;;;;;;;;;;4881583;29;20229;-81
2021/05/07 03:22:50;;;;;;;1.60;0.77;;;;;;;;;;4868272;29;20230;-85
2021/05/07 03:25:18;;;;;;;1.30;0.90;;;;;;;;;;4872887;29;20319;-81
2021/05/07 03:27:46;;;;;;;1.80;0.70;;;;;;;;;;4875496;29;20700;-83
2021/05/07 03:30:16;;;;;;;0.83;0.70;;;;;;;;;;4850363;29;20231;-82
2021/05/07 03:32:43;;;;;;;1.47;0.60;;;;;;;;;;4854182;29;20397;-81
2021/05/07 03:35:11;;;;;;;2.97;0.60;;;;;;;;;;4860338;29;20234;-80
2021/05/07 03:37:39;;;;;;;1.00;0.77;;;;;;;;;;4848929;29;20610;-81
2021/05/07 03:40:08;;;;;;;4.00;0.70;;;;;;;;;;4858326;29;20272;-83
2021/05/07 03:42:36;;;;;;;2.97;0.90;;;;;;;;;;4869710;29;20241;-82
2021/05/07 03:45:06;;;;;;;1.83;0.67;;;;;;;;;;4848886;29;20629;-82
2021/05/07 03:47:33;;;;;;;2.30;0.60;;;;;;;;;;4876793;29;20237;-83
2021/05/07 03:50:01;;;;;;;1.10;0.87;;;;;;;;;;4870440;29;20649;-82
2021/05/07 03:52:28;;;;;;;3.00;0.80;;;;;;;;;;4851172;29;20241;-83
2021/05/07 03:54:56;;;;;;;1.10;0.60;;;;;;;;;;4849938;29;20326;-82
2021/05/07 03:57:25;;;;;;;2.00;0.80;;;;;;;;;;4855477;29;20237;-87
2021/05/07 03:59:53;;;;;;;2.43;1.00;;;;;;;;;;4852906;29;20291;-85
2021/05/07 04:02:21;;;;;;;2.33;0.90;;;;;;;;;;4866228;29;20237;-82
2021/05/07 04:04:50;;;;;;;1.53;0.80;;;;;;;;;;4868735;29;20305;-85
2021/05/07 04:07:18;;;;;;;1.13;0.80;;;;;;;;;;4876579;29;20218;-84
2021/05/07 04:09:49;;;;;;;0.73;0.70;;;;;;;;;;4866261;29;20252;-83
2021/05/07 04:12:19;;;;;;;0.90;0.80;;;;;;;;;;4841841;29;20236;-83
2021/05/07 04:14:47;;;;;;;7.60;1.10;;;;;;;;;;4847994;29;20241;-84
2021/05/07 04:17:15;;;;;;;2.77;1.20;;;;;;;;;;4858617;29;20238;-85
2021/05/07 04:19:44;;;;;;;3.20;1.10;;;;;;;;;;4857651;29;20241;-88
2021/05/07 04:22:11;;;;;;;4.77;1.57;;;;;;;;;;4863185;29;20226;-83
2021/05/07 04:24:39;;;;;;;1.33;1.00;;;;;;;;;;4856048;29;20621;-83
2021/05/07 04:27:07;;;;;;;2.60;1.30;;;;;;;;;;4849837;29;20233;-85
2021/05/07 04:29:35;;;;;;;4.90;1.30;;;;;;;;;;4858685;29;20238;-85
2021/05/07 04:32:02;;;;;;;4.67;1.47;;;;;;;;;;4852443;29;20239;-82
2021/05/07 04:34:30;;;;;;;4.10;1.73;;;;;;;;;;4853745;29;20248;-85
2021/05/07 04:36:58;;;;;;;2.90;1.57;;;;;;;;;;4836795;29;20230;-83
2021/05/07 04:39:26;;;;;;;3.83;1.70;;;;;;;;;;4852186;29;20256;-80
2021/05/07 04:41:53;;;;;;;6.17;1.83;;;;;;;;;;4869137;29;20743;-85
2021/05/07 04:44:21;;;;;;;3.50;1.60;;;;;;;;;;4863050;29;20245;-86
2021/05/07 04:46:48;;;;;;;4.17;1.90;;;;;;;;;;4853247;29;20607;-84
2021/05/07 04:49:16;;;;;;;4.80;1.80;;;;;;;;;;4858624;29;20249;-83
2021/05/07 04:51:44;;;;;;;4.00;1.70;;;;;;;;;;4869435;29;20234;-81
2021/05/07 04:54:12;;;;;;;6.63;1.90;;;;;;;;;;4855175;29;20241;-83
2021/05/07 04:56:39;;;;;;;4.70;1.90;;;;;;;;;;4865448;29;20241;-81
2021/05/07 04:59:07;;;;;;;4.17;1.70;;;;;;;;;;4872315;29;20237;-85
2021/05/07 05:01:34;;;;;;;8.23;1.80;;;;;;;;;;4868281;29;20240;-81
2021/05/07 05:04:02;;;;;;;6.03;2.03;;;;;;;;;;4871701;29;20237;-83
2021/05/07 05:06:30;;;;;;;5.63;2.03;;;;;;;;;;4871275;29;20865;-83
2021/05/07 05:08:57;;;;;;;3.97;2.63;;;;;;;;;;4873990;29;20240;-83
2021/05/07 05:11:30;;;;;;;6.70;2.30;;;;;;;;;;4862288;29;20245;-83
2021/05/07 05:13:58;;;;;;;7.13;2.27;;;;;;;;;;4841552;29;20755;-84
2021/05/07 05:16:25;;;;;;;4.40;1.97;;;;;;;;;;4847211;29;20229;-84
2021/05/07 05:18:53;;;;;;;4.87;2.10;;;;;;;;;;4879001;29;20241;-81
2021/05/07 05:21:21;;;;;;;4.60;2.00;;;;;;;;;;4867147;29;20233;-84
2021/05/07 05:23:49;;;;;;;4.53;2.20;;;;;;;;;;4872016;29;20234;-83
2021/05/07 05:26:16;;;;;;;5.77;2.00;;;;;;;;;;4869503;29;20238;-82
2021/05/07 05:28:45;;;;;;;9.57;2.70;;;;;;;;;;4865449;29;20234;-82
2021/05/07 05:31:13;;;;;;;4.10;1.80;;;;;;;;;;4864763;29;20605;-82
2021/05/07 05:33:40;;;;;;;7.63;2.13;;;;;;;;;;4853954;29;20241;-84
2021/05/07 05:36:08;;;;;;;4.10;1.70;;;;;;;;;;4852918;29;20230;-85
2021/05/07 05:38:36;;;;;;;4.60;2.07;;;;;;;;;;4856800;29;20330;-85
2021/05/07 05:41:03;;;;;;;4.40;2.00;;;;;;;;;;4865728;29;20716;-83
2021/05/07 05:43:31;;;;;;;5.67;2.00;;;;;;;;;;4870321;29;20253;-81
2021/05/07 05:45:59;;;;;;;4.57;1.90;;;;;;;;;;4867817;29;20241;-86
2021/05/07 05:48:27;;;;;;;3.10;1.90;;;;;;;;;;4863987;29;20256;-86
2021/05/07 05:50:54;;;;;;;4.27;1.60;;;;;;;;;;4844193;29;20230;-83
2021/05/07 05:53:22;;;;;;;5.60;2.10;;;;;;;;;;4870569;29;20815;-83
2021/05/07 05:55:49;;;;;;;4.93;1.50;;;;;;;;;;4857600;29;20605;-81
2021/05/07 05:58:17;;;;;;;3.90;1.20;;;;;;;;;;4851244;29;20230;-84
2021/05/07 06:00:45;;;;;;;2.50;1.43;;;;;;;;;;4864640;29;20233;-83
2021/05/07 06:03:13;;;;;;;3.00;1.40;;;;;;;;;;4833518;29;20612;-84
2021/05/07 06:05:40;;;;;;;7.00;1.90;;;;;;;;;;4849884;29;20234;-83
2021/05/07 06:08:08;;;;;;;3.70;1.40;;;;;;;;;;4851080;29;20241;-84
2021/05/07 06:10:36;;;;;;;2.97;1.17;;;;;;;;;;4873354;29;20700;-83
2021/05/07 06:13:04;;;;;;;4.17;1.27;;;;;;;;;;4860052;29;20226;-82
2021/05/07 06:15:32;;;;;;;3.20;1.20;;;;;;;;;;4894119;29;20227;-86
2021/05/07 06:17:59;;;;;;;3.10;1.20;;;;;;;;;;4870386;29;20700;-80
2021/05/07 06:20:28;;;;;;;5.13;1.13;;;;;;;;;;4873034;29;20237;-81
2021/05/07 06:22:56;;;;;;;3.40;1.13;;;;;;;;;;4874379;29;20234;-83
2021/05/07 06:25:25;;;;;;;3.20;1.00;;;;;;;;;;4861693;29;20854;-81
2021/05/07 06:27:53;;;;;;;1.80;1.30;;;;;;;;;;4876136;29;20245;-82
2021/05/07 06:30:21;;;;;;;2.40;1.00;;;;;;;;;;4861537;29;20222;-80
2021/05/07 06:32:48;;;;;;;4.53;1.20;;;;;;;;;;4879466;29;20242;-80
2021/05/07 06:35:16;;;;;;;1.73;1.20;;;;;;;;;;4872631;29;20735;-81
2021/05/07 06:37:45;;;;;;;3.10;1.10;;;;;;;;;;4850992;29;20325;-84
2021/05/07 06:40:13;;;;;;;2.03;1.30;;;;;;;;;;4853519;29;20238;-82
2021/05/07 06:42:41;;;;;;;3.03;1.27;;;;;;;;;;4871458;29;20238;-81
2021/05/07 06:45:10;;;;;;;2.97;1.10;;;;;;;;;;4861403;29;20610;-81
2021/05/07 06:47:38;;;;;;;1.33;0.90;;;;;;;;;;4856141;29;20618;-81
2021/05/07 06:50:07;;;;;;;2.40;1.10;;;;;;;;;;4874386;29;20238;-82
2021/05/07 06:52:35;;;;;;;2.57;1.20;;;;;;;;;;4873081;29;20241;-81
2021/05/07 06:55:05;;;;;;;1.57;0.90;;;;;;;;;;4856424;29;20234;-82
2021/05/07 06:57:32;;;;;;;2.23;1.00;;;;;;;;;;4872091;29;20245;-81
2021/05/07 07:00:00;;;;;;;4.57;1.37;;;;;;;;;;4856527;29;20593;-81
2021/05/07 07:02:27;;;;;;;4.83;1.90;;;;;;;;;;4876129;29;20243;-81
2021/05/07 07:04:57;;;;;;;4.87;1.40;;;;;;;;;;4855204;29;20238;-80
2021/05/07 07:07:26;;;;;;;2.00;1.20;;;;;;;;;;4871018;29;20234;-82
2021/05/07 07:09:54;;;;;;;1.67;1.03;;;;;;;;;;4853215;29;20269;-81
2021/05/07 07:12:23;;;;;;;2.00;0.73;;;;;;;;;;4866782;29;20234;-84
2021/05/07 07:14:52;;;;;;;1.67;0.80;;;;;;;;;;4865257;29;20712;-82
2021/05/07 07:17:19;;;;;;;2.97;1.33;;;;;;;;;;4851276;29;20720;-82
2021/05/07 07:19:47;;;;;;;7.10;0.80;;;;;;;;;;4867340;29;20245;-84
2021/05/07 07:22:16;;;;;;;1.20;0.70;;;;;;;;;;4852999;29;20234;-82
2021/05/07 07:24:44;;;;;;;2.60;0.70;;;;;;;;;;4865825;29;20237;-84
2021/05/07 07:27:12;;;;;;;0.50;0.50;;;;;;;;;;4863468;29;20409;-81
2021/05/07 07:29:40;;;;;;;3.60;0.67;;;;;;;;;;4866108;29;20230;-85
2021/05/07 07:32:08;;;;;;;2.53;0.73;;;;;;;;;;4859375;29;20238;-86
2021/05/07 07:34:35;;;;;;;2.60;1.20;;;;;;;;;;4857039;29;20721;-85
2021/05/07 07:37:03;;;;;;;0.73;0.63;;;;;;;;;;4854021;29;20231;-86
2021/05/07 07:39:30;;;;;;;2.40;0.80;;;;;;;;;;4884453;29;20219;-87
2021/05/07 07:41:58;;;;;;;0.50;0.50;;;;;;;;;;4894856;29;20240;-89
2021/05/07 07:44:25;;;;;;;1.93;0.80;;;;;;;;;;4882117;29;20215;-88
2021/05/07 07:46:54;;;;;;;0.70;0.70;;;;;;;;;;4883917;29;20228;-85
2021/05/07 07:49:22;;;;;;;1.13;0.60;;;;;;;;;;4864272;29;20232;-83
2021/05/07 07:51:50;;;;;;;1.43;0.70;;;;;;;;;;4848492;29;20234;-82
2021/05/07 07:54:17;;;;;;;2.97;0.90;;;;;;;;;;4857708;29;20226;-80
2021/05/07 07:56:45;;;;;;;0.93;0.60;;;;;;;;;;4861166;29;20244;-79
2021/05/07 07:59:12;;;;;;;2.10;0.77;;;;;;;;;;4862927;29;20246;-82
2021/05/07 08:01:42;;;;;;;1.27;0.70;;;;;;;;;;4862031;29;20230;-82
2021/05/07 08:04:10;;;;;;;0.80;0.60;;;;;;;;;;4860077;29;20270;-80
2021/05/07 08:06:38;;;;;;;0.50;0.50;;;;;;;;;;4854047;29;20226;-81
2021/05/07 08:09:06;;;;;;;0.40;0.40;;;;;;;;;;4858050;29;20755;-80
2021/05/07 08:11:33;;;;;;;0.80;0.50;;;;;;;;;;4857197;29;20237;-81
2021/05/07 08:14:01;;;;;;;0.90;0.53;;;;;;;;;;4833742;29;20738;-81
2021/05/07 08:16:29;;;;;;;0.47;0.40;;;;;;;;;;4863354;29;20238;-81
2021/05/07 08:18:57;;;;;;;2.87;0.70;;;;;;;;;;4850533;29;20241;-80
2021/05/07 08:21:27;;;;;;;0.60;0.60;;;;;;;;;;4847719;29;20226;-83
2021/05/07 08:23:55;;;;;;;0.87;0.60;;;;;;;;;;4831677;29;20242;-80
2021/05/07 08:26:23;;;;;;;0.60;0.60;;;;;;;;;;4845577;29;20246;-81
2021/05/07 08:28:51;;;;;;;0.50;0.50;;;;;;;;;;4841187;29;20246;-82
2021/05/07 08:31:19;;;;;;;0.57;0.40;;;;;;;;;;4858477;29;20237;-83
2021/05/07 08:33:47;;;;;;;0.43;0.43;;;;;;;;;;4837727;29;20235;-84
2021/05/07 08:36:14;;;;;;;0.40;0.40;;;;;;;;;;4857657;29;20241;-83
2021/05/07 08:38:43;;;;;;;1.80;0.60;;;;;;;;;;4851590;29;20238;-84
2021/05/07 08:41:10;;;;;;;0.43;0.40;;;;;;;;;;4843294;29;20234;-80
2021/05/07 08:43:38;;;;;;;0.53;0.53;;;;;;;;;;4852949;29;20230;-80
2021/05/07 08:46:06;;;;;;;0.60;0.60;;;;;;;;;;4848652;29;20249;-80
2021/05/07 08:48:35;;;;;;;1.23;0.60;;;;;;;;;;4852799;29;20237;-80
2021/05/07 08:51:03;;;;;;;0.60;0.50;;;;;;;;;;4861065;29;20234;-80
2021/05/07 08:53:31;;;;;;;0.60;0.50;;;;;;;;;;4846315;29;20248;-80
2021/05/07 08:56:03;;;;;;;0.40;0.40;;;;;;;;;;4859312;29;20239;-80
2021/05/07 08:58:31;;;;;;;0.80;0.63;;;;;;;;;;4864962;29;20229;-80
2021/05/07 09:00:58;;;;;;;1.37;0.80;;;;;;;;;;4843898;29;20242;-81
2021/05/07 09:03:26;;;;;;;0.97;0.70;;;;;;;;;;4842197;29;20296;-80
2021/05/07 09:05:53;;;;;;;1.27;0.60;;;;;;;;;;4844491;29;20218;-83
2021/05/07 09:08:29;;;;;;;0.60;0.50;;;;;;;;;;4878050;29;20226;-85
2021/05/07 09:11:02;;;;;;;0.40;0.40;;;;;;;;;;4854666;29;20230;-81
2021/05/07 09:13:29;;;;;;;0.70;0.60;;;;;;;;;;4866218;29;20237;-80
2021/05/07 09:15:57;;;;;;;0.50;0.47;;;;;;;;;;4842835;29;20230;-80
2021/05/07 09:18:24;;;;;;;1.13;0.60;;;;;;;;;;4827647;29;20241;-81
2021/05/07 09:20:53;;;;;;;0.80;0.70;;;;;;;;;;4850265;29;20237;-80
2021/05/07 09:23:21;;;;;;;1.73;0.70;;;;;;;;;;4830489;29;20596;-80
2021/05/07 09:25:59;;;;;;;0.73;0.50;;;;;;;;;;4846938;29;20260;-82
2021/05/07 09:28:28;;;;;;;0.67;0.63;;;;;;;;;;4846478;29;20241;-80
2021/05/07 09:31:09;;;;;;;1.03;0.57;;;;;;;;;;4844196;29;20234;-82
2021/05/07 09:33:40;;;;;;;0.67;0.60;;;;;;;;;;4841586;29;20230;-80
2021/05/07 09:36:08;;;;;;;1.00;0.70;;;;;;;;;;4831698;29;20226;-80
2021/05/07 09:38:36;;;;;;;0.50;0.50;;;;;;;;;;4858633;29;20252;-81
2021/05/07 09:41:05;;;;;;;0.60;0.60;;;;;;;;;;4871083;29;20230;-86
2021/05/07 09:43:33;;;;;;;0.60;0.50;;;;;;;;;;4858267;29;20234;-83
2021/05/07 09:46:01;;;;;;;0.63;0.53;;;;;;;;;;4853256;29;20226;-79
2021/05/07 09:48:29;;;;;;;0.40;0.40;;;;;;;;;;4847569;29;20241;-84
2021/05/07 09:50:57;;;;;;;0.50;0.50;;;;;;;;;;4838737;29;20226;-83
2021/05/07 09:53:26;;;;;;;1.57;0.50;;;;;;;;;;4847775;29;20227;-79
2021/05/07 09:55:59;;;;;;;0.50;0.50;;;;;;;;;;4849032;29;20241;-86
2021/05/07 09:58:27;;;;;;;1.40;0.50;;;;;;;;;;4845303;29;21329;-81
2021/05/07 10:00:57;;;;;;;0.50;0.50;;;;;;;;;;4862431;29;20237;-85
2021/05/07 10:03:24;;;;;;;0.53;0.53;;;;;;;;;;4864270;29;20709;-78
2021/05/07 10:05:52;;;;;;;1.30;0.50;;;;;;;;;;4834567;29;20245;-80
2021/05/07 10:08:20;;;;;;;0.50;0.40;;;;;;;;;;4859231;29;20719;-80
2021/05/07 10:10:49;;;;;;;1.27;0.67;;;;;;;;;;4836923;29;20233;-82
2021/05/07 10:13:24;;;;;;;0.50;0.50;;;;;;;;;;4852954;29;20241;-80
2021/05/07 10:16:01;;;;;;;1.33;0.60;;;;;;;;;;4849296;29;20235;-86
2021/05/07 10:18:31;;;;;;;0.50;0.50;;;;;;;;;;4855173;29;20248;-79
2021/05/07 10:21:01;;;;;;;0.60;0.60;;;;;;;;;;4845136;29;20704;-79
2021/05/07 10:23:29;;;;;;;0.60;0.60;;;;;;;;;;4842749;29;20281;-79
2021/05/07 10:25:58;;;;;;;0.50;0.50;;;;;;;;;;4844304;29;20616;-79
2021/05/07 10:28:27;;;;;;;0.60;0.60;;;;;;;;;;4849593;29;20239;-83
2021/05/07 10:31:07;;;;;;;0.50;0.50;;;;;;;;;;4867114;29;20598;-78
2021/05/07 10:33:35;;;;;;;0.60;0.60;;;;;;;;;;4866807;29;20229;-79
2021/05/07 10:36:04;;;;;;;0.77;0.50;;;;;;;;;;4850997;29;20261;-78
2021/05/07 10:38:31;;;;;;;0.60;0.60;;;;;;;;;;4838135;29;20607;-79
2021/05/07 10:41:07;;;;;;;0.50;0.50;;;;;;;;;;4862158;29;20229;-79
2021/05/07 10:43:37;;;;;;;0.50;0.50;;;;;;;;;;4846788;29;20241;-79
2021/05/07 10:46:05;;;;;;;0.50;0.50;;;;;;;;;;4847621;29;20234;-82
2021/05/07 10:48:33;;;;;;;0.50;0.50;;;;;;;;;;4837579;29;20248;-79
2021/05/07 10:51:04;;;;;;;0.60;0.60;;;;;;;;;;4843462;29;20839;-84
2021/05/07 10:53:34;;;;;;;0.70;0.70;;;;;;;;;;4868431;29;20226;-79
2021/05/07 10:56:14;;;;;;;0.60;0.60;;;;;;;;;;4848326;29;20222;-83
2021/05/07 10:58:42;;;;;;;0.50;0.50;;;;;;;;;;4846694;29;20708;-81
2021/05/07 11:01:25;;;;;;;0.63;0.63;;;;;;;;;;4843057;29;20234;-82
2021/05/07 11:04:00;;;;;;;0.70;0.70;;;;;;;;;;4845035;29;20245;-82
2021/05/07 11:06:32;;;;;;;0.60;0.60;;;;;;;;;;4863239;29;20736;-80
2021/05/07 11:09:18;;;;;;;1.07;0.73;;;;;;;;;;4868576;29;20240;-81
2021/05/07 11:11:47;;;;;;;0.70;0.70;;;;;;;;;;4853603;29;20237;-84
2021/05/07 11:14:17;;;;;;;1.00;0.80;;;;;;;;;;4858252;29;20286;-79
2021/05/07 11:16:47;;;;;;;0.90;0.90;;;;;;;;;;4852403;29;20242;-83
2021/05/07 11:19:22;;;;;;;1.23;1.13;;;;;;;;;;4857939;29;20234;-82
2021/05/07 11:21:52;;;;;;;1.13;1.07;;;;;;;;;;4841671;29;20238;-82
2021/05/07 11:24:27;;;;;;;1.43;1.10;;;;;;;;;;4841292;29;20230;-80
2021/05/07 11:26:55;;;;;;;1.00;0.97;;;;;;;;;;4846320;29;20627;-85
2021/05/07 11:29:27;;;;;;;1.33;1.20;;;;;;;;;;4839459;29;20242;-80
2021/05/07 11:32:07;;;;;;;1.37;1.23;;;;;;;;;;4855888;29;20233;-85
2021/05/07 11:34:35;;;;;;;1.50;1.40;;;;;;;;;;4870327;29;20230;-84
2021/05/07 11:37:03;;;;;;;1.40;1.30;;;;;;;;;;4839861;29;20237;-82
2021/05/07 11:39:31;;;;;;;1.83;1.70;;;;;;;;;;4838187;29;20235;-84
2021/05/07 11:41:59;;;;;;;1.90;1.60;;;;;;;;;;4868605;29;20238;-81
2021/05/07 11:44:26;;;;;;;2.60;1.63;;;;;;;;;;4848221;29;20249;-82
2021/05/07 11:47:08;;;;;;;1.50;1.40;;;;;;;;;;4872228;29;20231;-85
2021/05/07 11:49:37;;;;;;;3.20;1.70;;;;;;;;;;4865852;29;20238;-80
2021/05/07 11:52:06;;;;;;;1.63;1.50;;;;;;;;;;4863615;29;20238;-83
2021/05/07 11:54:41;;;;;;;2.70;1.30;;;;;;;;;;4835280;29;20241;-82
2021/05/07 11:57:10;;;;;;;1.60;1.50;;;;;;;;;;4857013;29;20241;-85
2021/05/07 11:59:47;;;;;;;1.90;1.67;;;;;;;;;;4842395;29;20230;-86
2021/05/07 12:02:23;;;;;;;2.30;1.80;;;;;;;;;;4860393;29;20253;-86
2021/05/07 12:04:53;;;;;;;2.10;1.80;;;;;;;;;;4856603;29;20256;-83
2021/05/07 12:07:26;;;;;;;1.63;1.50;;;;;;;;;;4871974;29;20612;-82
2021/05/07 12:09:55;;;;;;;1.87;1.77;;;;;;;;;;4849428;29;20242;-79
2021/05/07 12:12:22;;;;;;;1.60;1.50;;;;;;;;;;4853766;29;20226;-82
2021/05/07 12:15:11;;;;;;;2.13;2.00;;;;;;;;;;4861082;29;20233;-81
2021/05/07 12:17:41;;;;;;;1.50;1.40;;;;;;;;;;4858155;29;20733;-78
2021/05/07 12:20:10;;;;;;;2.20;1.80;;;;;;;;;;4853517;29;20238;-81
2021/05/07 12:22:38;;;;;;;1.90;1.50;;;;;;;;;;4835870;29;20233;-86
2021/05/07 12:25:08;;;;;;;1.97;1.70;;;;;;;;;;4832511;29;20234;-84
2021/05/07 12:27:43;;;;;;;1.93;1.83;;;;;;;;;;4867167;29;20229;-82
2021/05/07 12:30:20;;;;;;;2.60;2.07;;;;;;;;;;4838080;29;20234;-80
2021/05/07 12:33:03;;;;;;;2.37;1.87;;;;;;;;;;4850288;29;20226;-80
2021/05/07 12:35:38;;;;;;;1.70;1.60;;;;;;;;;;4856388;29;20242;-79
2021/05/07 12:38:28;;;;;;;2.60;1.87;;;;;;;;;;4833319;29;20237;-78
2021/05/07 12:40:58;;;;;;;2.47;2.17;;;;;;;;;;4830507;29;20631;-78
2021/05/07 12:43:27;;;;;;;2.20;1.65;;;;;;;;;;4850851;29;20259;-78
2021/05/07 12:45:55;;;;;;;2.30;2.03;;;;;;;;;;4865798;29;20230;-78
2021/05/07 12:48:46;;;;;;;2.15;1.95;;;;;;;;;;4847696;29;20242;-78
2021/05/07 12:51:14;;;;;;;1.50;1.40;;;;;;;;;;4858071;29;20772;-79
2021/05/07 12:53:42;;;;;;;2.78;1.90;;;;;;;;;;4846696;29;20230;-78
2021/05/07 12:56:12;;;;;;;2.10;1.75;;;;;;;;;;4851401;29;20237;-79
2021/05/07 12:58:40;;;;;;;2.45;1.83;;;;;;;;;;4871424;29;20245;-78
2021/05/07 13:01:08;;;;;;;2.00;1.88;;;;;;;;;;4838924;29;20240;-79
2021/05/07 13:03:35;;;;;;;1.63;1.52;;;;;;;;;;4858269;29;20233;-79
2021/05/07 13:06:04;;;;;;;2.85;1.90;;;;;;;;;;4839709;29;20225;-79
2021/05/07 13:08:32;;;;;;;2.53;1.90;;;;;;;;;;4865569;29;20233;-79
2021/05/07 13:11:00;;;;;;;1.95;1.85;;;;;;;;;;4857973;29;20496;-80
2021/05/07 13:13:27;;;;;;;1.95;1.80;;;;;;;;;;4855462;29;20233;-79
2021/05/07 13:15:55;;;;;;;1.92;1.80;;;;;;;;;;4866040;29;20234;-79
2021/05/07 13:18:24;;;;;;;2.40;2.10;;;;;;;;;;4858915;29;20237;-79
2021/05/07 13:20:52;;;;;;;2.00;1.80;;;;;;;;;;4850310;29;20234;-80
2021/05/07 13:23:22;;;;;;;1.65;1.50;;;;;;;;;;4852840;29;20245;-79
2021/05/07 13:25:50;;;;;;;3.03;1.63;;;;;;;;;;4848920;29;21277;-80
2021/05/07 13:28:17;;;;;;;2.03;1.80;;;;;;;;;;4846337;29;20244;-79
2021/05/07 13:30:45;;;;;;;3.83;2.15;;;;;;;;;;4851232;29;20234;-80
2021/05/07 13:33:13;;;;;;;2.08;1.70;;;;;;;;;;4853547;29;20230;-79
2021/05/07 13:35:43;;;;;;;6.20;2.15;;;;;;;;;;4866526;29;20226;-81
2021/05/07 13:38:11;;;;;;;2.20;1.90;;;;;;;;;;4854845;29;20270;-80
2021/05/07 13:40:40;;;;;;;2.20;2.03;;;;;;;;;;4846741;29;20239;-79
2021/05/07 13:43:07;;;;;;;2.05;1.95;;;;;;;;;;4851379;29;20591;-80
2021/05/07 13:45:36;;;;;;;2.00;1.90;;;;;;;;;;4844831;29;20234;-79
2021/05/07 13:48:04;;;;;;;2.10;1.90;;;;;;;;;;4849620;29;20238;-80
2021/05/07 13:50:49;;;;;;;3.10;1.70;;;;;;;;;;4879894;29;20790;-80
2021/05/07 13:53:18;;;;;;;2.00;1.90;;;;;;;;;;4862610;29;20241;-80
2021/05/07 13:55:47;;;;;;;3.03;2.00;;;;;;;;;;4866967;29;20234;-82
2021/05/07 13:58:14;;;;;;;1.75;1.65;;;;;;;;;;4862117;29;20279;-82
2021/05/07 14:00:42;;;;;;;1.98;1.80;;;;;;;;;;4861188;29;20226;-80
2021/05/07 14:03:09;;;;;;;1.98;1.77;;;;;;;;;;4858388;29;20241;-79
2021/05/07 14:05:39;;;;;;;1.83;1.73;;;;;;;;;;4846515;29;20234;-80
2021/05/07 14:08:07;;;;;;;3.05;2.00;;;;;;;;;;4851079;29;20618;-79
2021/05/07 14:10:35;;;;;;;2.45;1.80;;;;;;;;;;4862781;29;20241;-80
2021/05/07 14:13:04;;;;;;;2.35;1.90;;;;;;;;;;4869383;29;20226;-81
2021/05/07 14:15:33;;;;;;;2.72;1.83;;;;;;;;;;4855604;29;20846;-80
2021/05/07 14:18:01;;;;;;;2.10;1.90;;;;;;;;;;4851472;29;20237;-83
2021/05/07 14:20:29;;;;;;;4.65;1.90;;;;;;;;;;4872405;29;20232;-83
2021/05/07 14:22:56;;;;;;;2.20;2.00;;;;;;;;;;4869021;29;20227;-82
2021/05/07 14:25:25;;;;;;;4.03;1.90;;;;;;;;;;4872621;29;20230;-82
2021/05/07 14:27:53;;;;;;;2.37;1.57;;;;;;;;;;4867370;29;20249;-82
2021/05/07 14:30:22;;;;;;;2.70;1.70;;;;;;;;;;4849807;29;20252;-79
2021/05/07 14:32:50;;;;;;;3.33;1.50;;;;;;;;;;4837719;29;21599;-81
2021/05/07 14:35:18;;;;;;;6.30;2.67;;;;;;;;;;4837576;29;20248;-82
2021/05/07 14:37:45;;;;;;;2.60;1.90;;;;;;;;;;4827373;29;20612;-80
2021/05/07 14:40:14;;;;;;;2.50;1.77;;;;;;;;;;4839532;29;20253;-79
2021/05/07 14:42:42;;;;;;;2.37;1.70;;;;;;;;;;4840644;29;20230;-81
2021/05/07 14:45:10;;;;;;;2.77;2.00;;;;;;;;;;4845858;29;20608;-78
2021/05/07 14:47:39;;;;;;;1.57;1.47;;;;;;;;;;4861654;29;20242;-80
2021/05/07 14:50:08;;;;;;;4.07;1.60;;;;;;;;;;4846766;29;20248;-81
2021/05/07 14:52:36;;;;;;;2.30;2.10;;;;;;;;;;4855031;29;20234;-80
2021/05/07 14:55:05;;;;;;;2.55;1.77;;;;;;;;;;4869761;29;20237;-81